Аэропорт
Якутск (UEEE)

 UEEE / YKS
ЗЦ Хабаровск
Якутск (UEEE)
Якутск (UEEE)
 62.09330, 129.77100  / 325 ft

 UEEE 220630Z 06001MPS 9999 -SN NSC M23/M25 Q1010 R23L/450142 NOSIG RMK QFE748
 TAF UEEE 220200Z 2203/2309 02003G10MPS 9999 SCT030 OVC070 TEMPO 2203/2209 3200 -SN DRSN
AIP 1605
показать схемы
Название сценария Тип сценария Flight Simulator 9 Flight Simulator X Prepar3D v2 Prepar3D v3 Prepar3D v4 xPlane
UEEE P3D_v.4.4 бесплатный
ueee-scenery-fs9-1404 бесплатный
ueee-scenery-fsx-1405 бесплатный
ueee-scenery-p3d-1405 бесплатный
ueee-scenery-xpl-1210 бесплатный
ueee-scenery-xpl-1407 бесплатный


2020 © VATRUS division (Privacy Policy)